sensor_id;sensor_type;location;lat;lon;timestamp;P1;P2;P0
69205;PMS7003;56319;48.920;2.332;2024-01-06T00:01:00;9.00;8.00;6.50
69205;PMS7003;56319;48.920;2.332;2024-01-06T00:03:26;11.50;11.00;9.75
69205;PMS7003;56319;48.920;2.332;2024-01-06T00:05:52;12.75;11.75;9.00
69205;PMS7003;56319;48.920;2.332;2024-01-06T00:08:17;12.75;12.00;10.50
69205;PMS7003;56319;48.920;2.332;2024-01-06T00:10:43;15.00;13.00;11.00
69205;PMS7003;56319;48.920;2.332;2024-01-06T00:13:10;13.75;11.25;9.50
69205;PMS7003;56319;48.920;2.332;2024-01-06T00:15:36;14.25;11.00;9.25
69205;PMS7003;56319;48.920;2.332;2024-01-06T00:18:02;11.75;11.00;9.00
69205;PMS7003;56319;48.920;2.332;2024-01-06T00:20:27;14.00;12.00;10.50
69205;PMS7003;56319;48.920;2.332;2024-01-06T00:22:53;10.75;10.75;9.25
69205;PMS7003;56319;48.920;2.332;2024-01-06T00:25:20;13.00;12.00;9.75
69205;PMS7003;56319;48.920;2.332;2024-01-06T00:27:46;13.75;13.00;11.00
69205;PMS7003;56319;48.920;2.332;2024-01-06T00:30:12;11.25;11.25;10.00
69205;PMS7003;56319;48.920;2.332;2024-01-06T00:32:38;14.25;13.00;10.00
69205;PMS7003;56319;48.920;2.332;2024-01-06T00:35:04;14.75;12.50;10.25
69205;PMS7003;56319;48.920;2.332;2024-01-06T00:37:30;13.50;11.75;8.75
69205;PMS7003;56319;48.920;2.332;2024-01-06T00:39:55;13.00;13.00;10.75
69205;PMS7003;56319;48.920;2.332;2024-01-06T00:42:21;12.00;11.75;10.00
69205;PMS7003;56319;48.920;2.332;2024-01-06T00:44:47;12.75;9.50;8.00
69205;PMS7003;56319;48.920;2.332;2024-01-06T00:47:13;11.00;10.50;10.00
69205;PMS7003;56319;48.920;2.332;2024-01-06T00:49:38;17.25;12.00;10.75
69205;PMS7003;56319;48.920;2.332;2024-01-06T00:52:04;17.25;15.00;11.00
69205;PMS7003;56319;48.920;2.332;2024-01-06T00:54:30;12.75;12.00;10.00
69205;PMS7003;56319;48.920;2.332;2024-01-06T00:56:57;14.50;12.00;10.00
69205;PMS7003;56319;48.920;2.332;2024-01-06T00:59:22;18.75;13.00;11.00
69205;PMS7003;56319;48.920;2.332;2024-01-06T01:01:48;13.00;11.50;10.00
69205;PMS7003;56319;48.920;2.332;2024-01-06T01:04:14;10.75;9.25;7.75
69205;PMS7003;56319;48.920;2.332;2024-01-06T01:06:40;13.75;12.25;11.00
69205;PMS7003;56319;48.920;2.332;2024-01-06T01:09:05;12.00;12.00;10.00
69205;PMS7003;56319;48.920;2.332;2024-01-06T01:11:34;10.25;10.25;9.00
69205;PMS7003;56319;48.920;2.332;2024-01-06T01:14:00;11.25;11.25;10.00
69205;PMS7003;56319;48.920;2.332;2024-01-06T01:16:25;15.00;13.00;11.00
69205;PMS7003;56319;48.920;2.332;2024-01-06T01:18:51;9.00;8.75;6.75
69205;PMS7003;56319;48.920;2.332;2024-01-06T01:21:17;11.50;11.25;9.00
69205;PMS7003;56319;48.920;2.332;2024-01-06T01:23:43;12.50;12.00;9.75
69205;PMS7003;56319;48.920;2.332;2024-01-06T01:26:09;11.75;8.00;8.00
69205;PMS7003;56319;48.920;2.332;2024-01-06T01:28:34;11.00;10.00;8.50
69205;PMS7003;56319;48.920;2.332;2024-01-06T01:31:00;16.75;13.25;10.00
69205;PMS7003;56319;48.920;2.332;2024-01-06T01:33:26;14.00;12.25;10.25
69205;PMS7003;56319;48.920;2.332;2024-01-06T01:35:52;16.00;14.50;11.25
69205;PMS7003;56319;48.920;2.332;2024-01-06T01:38:18;10.75;10.75;8.75
69205;PMS7003;56319;48.920;2.332;2024-01-06T01:40:43;12.00;10.00;9.75
69205;PMS7003;56319;48.920;2.332;2024-01-06T01:45:55;15.50;11.00;10.00
69205;PMS7003;56319;48.920;2.332;2024-01-06T01:48:24;8.50;6.00;3.50
69205;PMS7003;56319;48.920;2.332;2024-01-06T01:50:50;12.50;11.25;10.00
69205;PMS7003;56319;48.920;2.332;2024-01-06T01:53:18;12.50;11.25;10.00
69205;PMS7003;56319;48.920;2.332;2024-01-06T01:55:45;11.00;10.50;9.00
69205;PMS7003;56319;48.920;2.332;2024-01-06T01:58:13;8.50;8.25;5.00
69205;PMS7003;56319;48.920;2.332;2024-01-06T02:00:39;13.25;11.00;10.25
69205;PMS7003;56319;48.920;2.332;2024-01-06T02:03:05;13.75;11.00;9.00
69205;PMS7003;56319;48.920;2.332;2024-01-06T02:05:32;9.25;9.25;6.00
69205;PMS7003;56319;48.920;2.332;2024-01-06T02:07:59;14.75;12.25;10.75
69205;PMS7003;56319;48.920;2.332;2024-01-06T02:10:25;9.75;9.00;6.25
69205;PMS7003;56319;48.920;2.332;2024-01-06T02:12:51;8.00;8.00;5.25
69205;PMS7003;56319;48.920;2.332;2024-01-06T02:15:17;13.00;11.50;9.00
69205;PMS7003;56319;48.920;2.332;2024-01-06T02:17:44;12.25;12.25;10.25
69205;PMS7003;56319;48.920;2.332;2024-01-06T02:20:10;17.25;13.50;10.50
69205;PMS7003;56319;48.920;2.332;2024-01-06T02:22:39;10.00;9.00;8.00
69205;PMS7003;56319;48.920;2.332;2024-01-06T02:25:05;10.75;10.75;9.00
69205;PMS7003;56319;48.920;2.332;2024-01-06T02:27:38;13.75;11.75;9.75
69205;PMS7003;56319;48.920;2.332;2024-01-06T02:30:05;10.75;10.00;8.75
69205;PMS7003;56319;48.920;2.332;2024-01-06T02:32:32;11.75;9.25;8.00
69205;PMS7003;56319;48.920;2.332;2024-01-06T02:34:58;12.25;11.75;9.00
69205;PMS7003;56319;48.920;2.332;2024-01-06T02:37:24;15.00;11.25;9.25
69205;PMS7003;56319;48.920;2.332;2024-01-06T02:39:49;14.75;12.00;10.00
69205;PMS7003;56319;48.920;2.332;2024-01-06T02:42:16;13.00;11.75;9.75
69205;PMS7003;56319;48.920;2.332;2024-01-06T02:44:42;11.75;11.75;10.50
69205;PMS7003;56319;48.920;2.332;2024-01-06T02:47:08;9.00;4.25;4.00
69205;PMS7003;56319;48.920;2.332;2024-01-06T02:49:33;11.50;11.00;9.00
69205;PMS7003;56319;48.920;2.332;2024-01-06T02:51:59;10.75;10.75;9.00
69205;PMS7003;56319;48.920;2.332;2024-01-06T02:54:25;13.75;12.50;10.25
69205;PMS7003;56319;48.920;2.332;2024-01-06T02:56:51;12.50;11.50;10.00
69205;PMS7003;56319;48.920;2.332;2024-01-06T02:59:17;11.75;11.00;9.00
69205;PMS7003;56319;48.920;2.332;2024-01-06T03:01:42;14.50;12.50;10.00
69205;PMS7003;56319;48.920;2.332;2024-01-06T03:04:08;15.75;11.25;9.75
69205;PMS7003;56319;48.920;2.332;2024-01-06T03:06:34;11.25;10.75;8.75
69205;PMS7003;56319;48.920;2.332;2024-01-06T03:09:00;14.00;11.00;9.00
69205;PMS7003;56319;48.920;2.332;2024-01-06T03:11:26;14.25;10.50;9.25
69205;PMS7003;56319;48.920;2.332;2024-01-06T03:13:52;11.00;11.00;9.75
69205;PMS7003;56319;48.920;2.332;2024-01-06T03:16:18;10.00;10.00;8.50
69205;PMS7003;56319;48.920;2.332;2024-01-06T03:18:44;13.50;11.00;9.50
69205;PMS7003;56319;48.920;2.332;2024-01-06T03:23:58;12.50;11.50;9.75
69205;PMS7003;56319;48.920;2.332;2024-01-06T03:26:23;11.50;10.75;7.50
69205;PMS7003;56319;48.920;2.332;2024-01-06T03:28:49;12.25;10.50;9.00
69205;PMS7003;56319;48.920;2.332;2024-01-06T03:31:15;11.00;11.00;9.00
69205;PMS7003;56319;48.920;2.332;2024-01-06T03:33:43;8.75;8.50;7.50
69205;PMS7003;56319;48.920;2.332;2024-01-06T03:36:09;12.00;10.75;8.75
69205;PMS7003;56319;48.920;2.332;2024-01-06T03:38:38;11.00;10.00;9.50
69205;PMS7003;56319;48.920;2.332;2024-01-06T03:41:04;13.75;13.50;10.75
69205;PMS7003;56319;48.920;2.332;2024-01-06T03:43:29;15.25;10.00;9.00
69205;PMS7003;56319;48.920;2.332;2024-01-06T03:45:55;11.25;8.75;6.00
69205;PMS7003;56319;48.920;2.332;2024-01-06T03:48:23;13.25;11.25;9.25
69205;PMS7003;56319;48.920;2.332;2024-01-06T03:50:48;9.50;6.00;6.00
69205;PMS7003;56319;48.920;2.332;2024-01-06T03:53:14;9.50;8.75;7.00
69205;PMS7003;56319;48.920;2.332;2024-01-06T03:55:40;9.00;8.75;7.00
69205;PMS7003;56319;48.920;2.332;2024-01-06T03:58:06;13.25;9.50;9.25
69205;PMS7003;56319;48.920;2.332;2024-01-06T04:00:32;14.75;10.25;7.25
69205;PMS7003;56319;48.920;2.332;2024-01-06T04:02:57;14.00;11.50;9.75
69205;PMS7003;56319;48.920;2.332;2024-01-06T04:05:23;12.50;10.00;9.00
69205;PMS7003;56319;48.920;2.332;2024-01-06T04:07:49;11.50;9.50;8.00
69205;PMS7003;56319;48.920;2.332;2024-01-06T04:10:15;10.75;9.25;8.00
69205;PMS7003;56319;48.920;2.332;2024-01-06T04:12:40;12.75;10.25;9.00
69205;PMS7003;56319;48.920;2.332;2024-01-06T04:15:06;10.75;10.00;9.00
69205;PMS7003;56319;48.920;2.332;2024-01-06T04:17:33;12.50;11.00;9.00
69205;PMS7003;56319;48.920;2.332;2024-01-06T04:19:58;11.00;8.75;7.00
69205;PMS7003;56319;48.920;2.332;2024-01-06T04:22:24;10.75;10.00;9.00
69205;PMS7003;56319;48.920;2.332;2024-01-06T04:24:50;19.00;12.00;9.75
69205;PMS7003;56319;48.920;2.332;2024-01-06T04:27:17;12.25;10.75;9.50
69205;PMS7003;56319;48.920;2.332;2024-01-06T04:29:43;11.00;9.75;8.75
69205;PMS7003;56319;48.920;2.332;2024-01-06T04:32:09;11.00;9.50;7.75
69205;PMS7003;56319;48.920;2.332;2024-01-06T04:34:35;10.00;10.00;8.50
69205;PMS7003;56319;48.920;2.332;2024-01-06T04:37:01;11.25;10.50;8.25
69205;PMS7003;56319;48.920;2.332;2024-01-06T04:39:26;10.00;10.00;9.00
69205;PMS7003;56319;48.920;2.332;2024-01-06T04:41:52;14.00;12.25;10.00
69205;PMS7003;56319;48.920;2.332;2024-01-06T04:44:20;12.75;10.50;8.50
69205;PMS7003;56319;48.920;2.332;2024-01-06T04:46:46;11.00;9.50;8.00
69205;PMS7003;56319;48.920;2.332;2024-01-06T04:49:12;12.25;12.25;9.50
69205;PMS7003;56319;48.920;2.332;2024-01-06T04:51:38;11.00;11.00;9.00
69205;PMS7003;56319;48.920;2.332;2024-01-06T04:54:04;9.50;9.00;8.00
69205;PMS7003;56319;48.920;2.332;2024-01-06T04:56:30;6.25;4.00;2.50
69205;PMS7003;56319;48.920;2.332;2024-01-06T04:58:56;11.75;10.00;8.50
69205;PMS7003;56319;48.920;2.332;2024-01-06T05:01:23;10.00;10.00;8.00
69205;PMS7003;56319;48.920;2.332;2024-01-06T05:03:49;9.50;9.50;8.25
69205;PMS7003;56319;48.920;2.332;2024-01-06T05:06:15;11.00;11.00;9.00
69205;PMS7003;56319;48.920;2.332;2024-01-06T05:08:41;13.00;10.50;7.75
69205;PMS7003;56319;48.920;2.332;2024-01-06T05:11:10;12.00;11.25;10.00
69205;PMS7003;56319;48.920;2.332;2024-01-06T05:13:37;10.25;10.25;9.00
69205;PMS7003;56319;48.920;2.332;2024-01-06T05:16:03;10.50;10.50;8.00
69205;PMS7003;56319;48.920;2.332;2024-01-06T05:18:29;12.00;11.00;8.00
69205;PMS7003;56319;48.920;2.332;2024-01-06T05:20:55;11.50;10.00;8.50
69205;PMS7003;56319;48.920;2.332;2024-01-06T05:23:22;15.50;12.00;10.25
69205;PMS7003;56319;48.920;2.332;2024-01-06T05:25:47;12.25;10.50;8.00
69205;PMS7003;56319;48.920;2.332;2024-01-06T05:28:13;9.75;8.25;8.00
69205;PMS7003;56319;48.920;2.332;2024-01-06T05:30:39;10.00;9.00;7.00
69205;PMS7003;56319;48.920;2.332;2024-01-06T05:33:05;13.00;12.00;9.25
69205;PMS7003;56319;48.920;2.332;2024-01-06T05:35:34;14.00;11.75;10.00
69205;PMS7003;56319;48.920;2.332;2024-01-06T05:38:01;10.50;10.00;9.00
69205;PMS7003;56319;48.920;2.332;2024-01-06T05:40:26;12.75;10.75;8.75
69205;PMS7003;56319;48.920;2.332;2024-01-06T05:42:52;13.25;13.25;9.00
69205;PMS7003;56319;48.920;2.332;2024-01-06T05:45:23;11.50;11.00;9.00
69205;PMS7003;56319;48.920;2.332;2024-01-06T05:47:49;16.75;12.25;10.75
69205;PMS7003;56319;48.920;2.332;2024-01-06T05:50:15;10.00;10.00;9.00
69205;PMS7003;56319;48.920;2.332;2024-01-06T05:52:42;16.50;11.00;9.25
69205;PMS7003;56319;48.920;2.332;2024-01-06T05:55:08;11.00;10.25;9.50
69205;PMS7003;56319;48.920;2.332;2024-01-06T05:57:34;2.50;1.50;1.50
69205;PMS7003;56319;48.920;2.332;2024-01-06T06:00:00;10.00;10.00;8.50
69205;PMS7003;56319;48.920;2.332;2024-01-06T06:02:26;11.75;10.25;9.00
69205;PMS7003;56319;48.920;2.332;2024-01-06T06:04:52;10.00;9.50;8.00
69205;PMS7003;56319;48.920;2.332;2024-01-06T06:07:18;13.25;11.00;9.75
69205;PMS7003;56319;48.920;2.332;2024-01-06T06:09:44;16.00;11.00;9.00
69205;PMS7003;56319;48.920;2.332;2024-01-06T06:12:13;14.75;12.25;9.75
69205;PMS7003;56319;48.920;2.332;2024-01-06T06:14:39;11.25;10.00;9.00
69205;PMS7003;56319;48.920;2.332;2024-01-06T06:17:05;12.00;10.25;9.00
69205;PMS7003;56319;48.920;2.332;2024-01-06T06:19:31;10.50;9.00;8.00
69205;PMS7003;56319;48.920;2.332;2024-01-06T06:21:57;11.25;10.00;8.75
69205;PMS7003;56319;48.920;2.332;2024-01-06T06:24:23;10.00;10.00;8.50
69205;PMS7003;56319;48.920;2.332;2024-01-06T06:26:48;10.75;10.50;8.50
69205;PMS7003;56319;48.920;2.332;2024-01-06T06:29:14;12.25;8.50;6.00
69205;PMS7003;56319;48.920;2.332;2024-01-06T06:31:39;10.75;9.75;8.25
69205;PMS7003;56319;48.920;2.332;2024-01-06T06:34:05;10.00;10.00;9.00
69205;PMS7003;56319;48.920;2.332;2024-01-06T06:36:31;9.75;9.00;8.00
69205;PMS7003;56319;48.920;2.332;2024-01-06T06:38:57;10.25;8.25;7.00
69205;PMS7003;56319;48.920;2.332;2024-01-06T06:41:24;13.50;11.75;9.25
69205;PMS7003;56319;48.920;2.332;2024-01-06T06:43:50;11.25;10.50;9.00
69205;PMS7003;56319;48.920;2.332;2024-01-06T06:46:16;11.75;11.00;9.25
69205;PMS7003;56319;48.920;2.332;2024-01-06T06:48:42;12.00;10.50;9.00
69205;PMS7003;56319;48.920;2.332;2024-01-06T06:51:08;7.00;6.00;5.00
69205;PMS7003;56319;48.920;2.332;2024-01-06T06:53:33;9.00;9.00;8.00
69205;PMS7003;56319;48.920;2.332;2024-01-06T06:55:59;10.75;10.75;8.25
69205;PMS7003;56319;48.920;2.332;2024-01-06T06:58:24;7.75;7.50;5.75
69205;PMS7003;56319;48.920;2.332;2024-01-06T07:00:50;11.50;11.00;8.00
69205;PMS7003;56319;48.920;2.332;2024-01-06T07:03:16;10.25;8.75;7.00
69205;PMS7003;56319;48.920;2.332;2024-01-06T07:05:42;9.25;9.00;7.25
69205;PMS7003;56319;48.920;2.332;2024-01-06T07:08:07;10.25;9.50;7.50
69205;PMS7003;56319;48.920;2.332;2024-01-06T07:10:33;10.00;8.00;6.25
69205;PMS7003;56319;48.920;2.332;2024-01-06T07:12:59;9.75;8.50;7.75
69205;PMS7003;56319;48.920;2.332;2024-01-06T07:15:24;10.50;9.25;8.00
69205;PMS7003;56319;48.920;2.332;2024-01-06T07:17:50;10.50;10.50;8.25
69205;PMS7003;56319;48.920;2.332;2024-01-06T07:20:16;10.00;9.75;8.25
69205;PMS7003;56319;48.920;2.332;2024-01-06T07:22:41;10.00;10.00;9.00
69205;PMS7003;56319;48.920;2.332;2024-01-06T07:25:07;7.75;7.50;5.75
69205;PMS7003;56319;48.920;2.332;2024-01-06T07:27:33;9.00;9.00;8.00
69205;PMS7003;56319;48.920;2.332;2024-01-06T07:29:59;12.75;11.00;8.25
69205;PMS7003;56319;48.920;2.332;2024-01-06T07:32:25;9.25;9.00;8.00
69205;PMS7003;56319;48.920;2.332;2024-01-06T07:34:50;8.25;8.25;6.50
69205;PMS7003;56319;48.920;2.332;2024-01-06T07:37:16;8.25;8.25;7.25
69205;PMS7003;56319;48.920;2.332;2024-01-06T07:39:42;9.75;9.25;8.25
69205;PMS7003;56319;48.920;2.332;2024-01-06T07:42:08;9.75;8.75;7.50
69205;PMS7003;56319;48.920;2.332;2024-01-06T07:44:34;9.75;8.50;7.75
69205;PMS7003;56319;48.920;2.332;2024-01-06T07:46:59;9.50;8.25;6.50
69205;PMS7003;56319;48.920;2.332;2024-01-06T07:49:27;7.50;7.50;6.25
69205;PMS7003;56319;48.920;2.332;2024-01-06T07:51:53;8.50;6.75;5.00
69205;PMS7003;56319;48.920;2.332;2024-01-06T07:54:18;8.00;8.00;5.00
69205;PMS7003;56319;48.920;2.332;2024-01-06T07:56:44;10.00;8.00;7.50
69205;PMS7003;56319;48.920;2.332;2024-01-06T07:59:10;10.50;10.00;7.75
69205;PMS7003;56319;48.920;2.332;2024-01-06T08:01:36;11.00;8.00;5.50
69205;PMS7003;56319;48.920;2.332;2024-01-06T08:04:02;10.00;8.25;8.00
69205;PMS7003;56319;48.920;2.332;2024-01-06T08:06:31;13.25;11.00;8.25
69205;PMS7003;56319;48.920;2.332;2024-01-06T08:08:56;8.75;7.75;5.00
69205;PMS7003;56319;48.920;2.332;2024-01-06T08:11:22;6.50;4.75;4.00
69205;PMS7003;56319;48.920;2.332;2024-01-06T08:13:48;8.25;8.25;7.25
69205;PMS7003;56319;48.920;2.332;2024-01-06T08:16:13;9.25;9.00;6.25
69205;PMS7003;56319;48.920;2.332;2024-01-06T08:18:39;8.50;8.00;6.25
69205;PMS7003;56319;48.920;2.332;2024-01-06T08:21:05;8.75;6.00;5.50
69205;PMS7003;56319;48.920;2.332;2024-01-06T08:23:31;8.75;7.00;5.00
69205;PMS7003;56319;48.920;2.332;2024-01-06T08:25:57;9.75;8.75;6.25
69205;PMS7003;56319;48.920;2.332;2024-01-06T08:28:22;8.00;8.00;6.25
69205;PMS7003;56319;48.920;2.332;2024-01-06T08:30:48;6.50;5.00;4.25
69205;PMS7003;56319;48.920;2.332;2024-01-06T08:33:15;8.25;7.75;5.25
69205;PMS7003;56319;48.920;2.332;2024-01-06T08:35:40;9.50;8.00;6.25
69205;PMS7003;56319;48.920;2.332;2024-01-06T08:38:06;10.50;8.00;5.50
69205;PMS7003;56319;48.920;2.332;2024-01-06T08:40:33;9.25;8.00;6.25
69205;PMS7003;56319;48.920;2.332;2024-01-06T08:43:00;9.00;8.50;6.00
69205;PMS7003;56319;48.920;2.332;2024-01-06T08:45:25;6.25;6.25;5.50
69205;PMS7003;56319;48.920;2.332;2024-01-06T08:47:51;10.50;8.25;5.00
69205;PMS7003;56319;48.920;2.332;2024-01-06T08:50:17;11.00;9.00;6.25
69205;PMS7003;56319;48.920;2.332;2024-01-06T08:52:42;7.00;5.50;5.00
69205;PMS7003;56319;48.920;2.332;2024-01-06T08:55:08;10.75;8.00;5.50
69205;PMS7003;56319;48.920;2.332;2024-01-06T08:57:34;4.50;4.50;3.75
69205;PMS7003;56319;48.920;2.332;2024-01-06T08:59:59;8.25;7.00;5.50
69205;PMS7003;56319;48.920;2.332;2024-01-06T09:02:25;8.00;8.00;5.50
69205;PMS7003;56319;48.920;2.332;2024-01-06T09:04:51;9.00;7.75;5.25
69205;PMS7003;56319;48.920;2.332;2024-01-06T09:07:16;5.25;5.25;5.00
69205;PMS7003;56319;48.920;2.332;2024-01-06T09:09:43;9.50;5.25;5.00
69205;PMS7003;56319;48.920;2.332;2024-01-06T09:12:09;8.50;8.00;5.00
69205;PMS7003;56319;48.920;2.332;2024-01-06T09:14:35;7.75;7.00;5.00
69205;PMS7003;56319;48.920;2.332;2024-01-06T09:17:01;6.00;6.00;5.75
69205;PMS7003;56319;48.920;2.332;2024-01-06T09:19:26;4.50;4.50;3.00
69205;PMS7003;56319;48.920;2.332;2024-01-06T09:21:54;10.25;8.50;6.50
69205;PMS7003;56319;48.920;2.332;2024-01-06T09:24:20;8.00;7.25;5.00
69205;PMS7003;56319;48.920;2.332;2024-01-06T09:26:46;8.50;8.00;5.75
69205;PMS7003;56319;48.920;2.332;2024-01-06T09:29:12;10.75;7.00;6.00
69205;PMS7003;56319;48.920;2.332;2024-01-06T09:31:38;7.00;7.00;5.50
69205;PMS7003;56319;48.920;2.332;2024-01-06T09:34:03;8.25;5.00;4.25
69205;PMS7003;56319;48.920;2.332;2024-01-06T09:36:31;8.00;6.00;5.00
69205;PMS7003;56319;48.920;2.332;2024-01-06T09:38:57;8.75;7.75;5.00
69205;PMS7003;56319;48.920;2.332;2024-01-06T09:41:23;8.00;6.25;5.00
69205;PMS7003;56319;48.920;2.332;2024-01-06T09:43:50;11.00;9.00;6.25
69205;PMS7003;56319;48.920;2.332;2024-01-06T09:46:18;7.75;7.75;5.00
69205;PMS7003;56319;48.920;2.332;2024-01-06T09:48:51;5.25;5.25;4.50
69205;PMS7003;56319;48.920;2.332;2024-01-06T09:51:18;5.00;5.00;4.75
69205;PMS7003;56319;48.920;2.332;2024-01-06T09:53:48;6.00;5.25;4.00
69205;PMS7003;56319;48.920;2.332;2024-01-06T09:56:18;8.25;6.75;5.00
69205;PMS7003;56319;48.920;2.332;2024-01-06T09:58:44;5.00;5.00;3.75
69205;PMS7003;56319;48.920;2.332;2024-01-06T10:01:10;8.25;5.25;4.75
69205;PMS7003;56319;48.920;2.332;2024-01-06T10:03:37;6.25;5.00;4.75
69205;PMS7003;56319;48.920;2.332;2024-01-06T10:06:03;6.25;5.50;5.00
69205;PMS7003;56319;48.920;2.332;2024-01-06T10:08:30;7.25;5.25;5.00
69205;PMS7003;56319;48.920;2.332;2024-01-06T10:10:58;7.00;5.00;3.75
69205;PMS7003;56319;48.920;2.332;2024-01-06T10:13:25;7.75;5.50;4.25
69205;PMS7003;56319;48.920;2.332;2024-01-06T10:15:51;4.75;4.75;4.00
69205;PMS7003;56319;48.920;2.332;2024-01-06T10:18:20;4.50;4.00;4.00
69205;PMS7003;56319;48.920;2.332;2024-01-06T10:20:46;4.00;4.00;4.00
69205;PMS7003;56319;48.920;2.332;2024-01-06T10:23:12;7.75;4.00;3.75
69205;PMS7003;56319;48.920;2.332;2024-01-06T10:25:38;5.25;4.00;3.00
69205;PMS7003;56319;48.920;2.332;2024-01-06T10:28:10;4.00;3.75;3.00
69205;PMS7003;56319;48.920;2.332;2024-01-06T10:33:08;5.00;4.75;3.50
69205;PMS7003;56319;48.920;2.332;2024-01-06T10:35:39;4.00;4.00;3.00
69205;PMS7003;56319;48.920;2.332;2024-01-06T10:38:06;4.00;4.00;3.00
69205;PMS7003;56319;48.920;2.332;2024-01-06T10:40:32;4.50;4.50;3.75
69205;PMS7003;56319;48.920;2.332;2024-01-06T10:42:59;4.00;4.00;4.00
69205;PMS7003;56319;48.920;2.332;2024-01-06T10:45:27;4.00;4.00;4.00
69205;PMS7003;56319;48.920;2.332;2024-01-06T10:47:54;3.25;3.00;3.00
69205;PMS7003;56319;48.920;2.332;2024-01-06T10:50:20;4.00;4.00;4.00
69205;PMS7003;56319;48.920;2.332;2024-01-06T10:52:47;5.25;4.00;3.00
69205;PMS7003;56319;48.920;2.332;2024-01-06T10:55:15;5.75;3.25;3.00
69205;PMS7003;56319;48.920;2.332;2024-01-06T10:57:43;3.00;3.00;2.00
69205;PMS7003;56319;48.920;2.332;2024-01-06T11:00:10;4.00;3.00;3.00
69205;PMS7003;56319;48.920;2.332;2024-01-06T11:02:36;3.00;3.00;2.00
69205;PMS7003;56319;48.920;2.332;2024-01-06T11:05:02;3.75;2.75;2.50
69205;PMS7003;56319;48.920;2.332;2024-01-06T11:07:32;2.75;2.75;2.50
69205;PMS7003;56319;48.920;2.332;2024-01-06T11:10:02;3.25;3.00;2.75
69205;PMS7003;56319;48.920;2.332;2024-01-06T11:12:31;3.00;3.00;3.00
69205;PMS7003;56319;48.920;2.332;2024-01-06T11:14:58;5.75;4.00;4.00
69205;PMS7003;56319;48.920;2.332;2024-01-06T11:20:29;3.00;3.00;2.50
69205;PMS7003;56319;48.920;2.332;2024-01-06T11:22:55;4.00;2.50;2.25
69205;PMS7003;56319;48.920;2.332;2024-01-06T11:25:42;3.25;3.00;2.00
69205;PMS7003;56319;48.920;2.332;2024-01-06T11:28:08;3.00;3.00;2.00
69205;PMS7003;56319;48.920;2.332;2024-01-06T11:30:37;3.00;3.00;2.00
69205;PMS7003;56319;48.920;2.332;2024-01-06T11:33:04;2.50;2.00;2.00
69205;PMS7003;56319;48.920;2.332;2024-01-06T11:35:30;2.00;2.00;2.00
69205;PMS7003;56319;48.920;2.332;2024-01-06T11:37:56;2.00;1.75;1.50
69205;PMS7003;56319;48.920;2.332;2024-01-06T11:43:11;3.00;3.00;2.75
69205;PMS7003;56319;48.920;2.332;2024-01-06T11:45:38;2.75;2.25;2.00
69205;PMS7003;56319;48.920;2.332;2024-01-06T11:48:07;3.75;2.00;2.00
69205;PMS7003;56319;48.920;2.332;2024-01-06T11:50:36;2.00;2.00;2.00
69205;PMS7003;56319;48.920;2.332;2024-01-06T11:53:03;2.00;2.00;2.00
69205;PMS7003;56319;48.920;2.332;2024-01-06T11:55:30;2.00;2.00;2.00
69205;PMS7003;56319;48.920;2.332;2024-01-06T11:57:58;2.00;2.00;1.00
69205;PMS7003;56319;48.920;2.332;2024-01-06T12:00:28;3.00;3.00;2.00
69205;PMS7003;56319;48.920;2.332;2024-01-06T12:02:56;4.25;2.00;2.00
69205;PMS7003;56319;48.920;2.332;2024-01-06T12:05:22;2.50;2.50;1.00
69205;PMS7003;56319;48.920;2.332;2024-01-06T12:10:35;2.00;2.00;1.75
69205;PMS7003;56319;48.920;2.332;2024-01-06T12:13:03;2.00;2.00;2.00
69205;PMS7003;56319;48.920;2.332;2024-01-06T12:15:31;2.50;1.50;1.25
69205;PMS7003;56319;48.920;2.332;2024-01-06T12:17:57;1.50;1.00;1.00
69205;PMS7003;56319;48.920;2.332;2024-01-06T12:20:25;1.00;1.00;1.00
69205;PMS7003;56319;48.920;2.332;2024-01-06T12:22:51;2.50;1.75;1.50
69205;PMS7003;56319;48.920;2.332;2024-01-06T12:25:20;2.00;2.00;2.00
69205;PMS7003;56319;48.920;2.332;2024-01-06T12:27:47;1.75;1.75;1.50
69205;PMS7003;56319;48.920;2.332;2024-01-06T12:30:15;3.00;1.75;1.25
69205;PMS7003;56319;48.920;2.332;2024-01-06T12:32:45;1.00;1.00;1.00
69205;PMS7003;56319;48.920;2.332;2024-01-06T12:35:12;2.00;1.00;0.75
69205;PMS7003;56319;48.920;2.332;2024-01-06T12:37:41;1.50;1.00;1.00
69205;PMS7003;56319;48.920;2.332;2024-01-06T12:40:08;1.50;1.50;1.50
69205;PMS7003;56319;48.920;2.332;2024-01-06T12:42:35;2.50;1.75;1.50
69205;PMS7003;56319;48.920;2.332;2024-01-06T12:45:02;1.25;1.00;1.00
69205;PMS7003;56319;48.920;2.332;2024-01-06T12:47:28;2.00;2.00;1.00
69205;PMS7003;56319;48.920;2.332;2024-01-06T12:49:54;1.50;1.50;1.00
69205;PMS7003;56319;48.920;2.332;2024-01-06T12:52:20;1.50;1.50;1.00
69205;PMS7003;56319;48.920;2.332;2024-01-06T12:54:46;1.50;1.00;0.50
69205;PMS7003;56319;48.920;2.332;2024-01-06T12:57:12;0.00;0.00;0.00
69205;PMS7003;56319;48.920;2.332;2024-01-06T12:59:38;2.00;2.00;2.00
69205;PMS7003;56319;48.920;2.332;2024-01-06T13:02:03;1.50;1.50;1.00
69205;PMS7003;56319;48.920;2.332;2024-01-06T13:04:29;1.00;1.00;0.50
69205;PMS7003;56319;48.920;2.332;2024-01-06T13:06:55;0.75;0.75;0.75
69205;PMS7003;56319;48.920;2.332;2024-01-06T13:09:21;1.00;1.00;1.00
69205;PMS7003;56319;48.920;2.332;2024-01-06T13:11:49;1.75;1.75;1.50
69205;PMS7003;56319;48.920;2.332;2024-01-06T13:14:16;1.00;1.00;1.00
69205;PMS7003;56319;48.920;2.332;2024-01-06T13:16:43;0.75;0.75;0.75
69205;PMS7003;56319;48.920;2.332;2024-01-06T13:19:09;0.75;0.75;0.75
69205;PMS7003;56319;48.920;2.332;2024-01-06T13:21:35;2.00;1.25;1.00
69205;PMS7003;56319;48.920;2.332;2024-01-06T13:24:05;1.00;1.00;1.00
69205;PMS7003;56319;48.920;2.332;2024-01-06T13:26:32;1.25;1.25;1.00
69205;PMS7003;56319;48.920;2.332;2024-01-06T13:28:58;0.50;0.50;0.25
69205;PMS7003;56319;48.920;2.332;2024-01-06T13:31:24;1.25;1.25;1.00
69205;PMS7003;56319;48.920;2.332;2024-01-06T13:33:51;0.75;0.75;0.00
69205;PMS7003;56319;48.920;2.332;2024-01-06T13:36:18;1.25;0.50;0.50
69205;PMS7003;56319;48.920;2.332;2024-01-06T13:38:45;0.50;0.50;0.50
69205;PMS7003;56319;48.920;2.332;2024-01-06T13:41:11;2.50;1.00;1.00
69205;PMS7003;56319;48.920;2.332;2024-01-06T13:43:38;2.00;2.00;1.50
69205;PMS7003;56319;48.920;2.332;2024-01-06T13:46:03;1.00;1.00;1.00
69205;PMS7003;56319;48.920;2.332;2024-01-06T13:48:29;1.00;1.00;1.00
69205;PMS7003;56319;48.920;2.332;2024-01-06T13:50:55;1.25;1.25;1.00
69205;PMS7003;56319;48.920;2.332;2024-01-06T13:53:22;3.00;1.00;1.00
69205;PMS7003;56319;48.920;2.332;2024-01-06T13:55:48;3.00;1.00;1.00
69205;PMS7003;56319;48.920;2.332;2024-01-06T13:58:13;0.00;0.00;0.00
69205;PMS7003;56319;48.920;2.332;2024-01-06T14:00:39;1.00;1.00;1.00
69205;PMS7003;56319;48.920;2.332;2024-01-06T14:03:05;0.00;0.00;0.00
69205;PMS7003;56319;48.920;2.332;2024-01-06T14:05:32;1.50;0.25;0.00
69205;PMS7003;56319;48.920;2.332;2024-01-06T14:07:58;1.50;1.00;1.00
69205;PMS7003;56319;48.920;2.332;2024-01-06T14:10:24;0.00;0.00;0.00
69205;PMS7003;56319;48.920;2.332;2024-01-06T14:12:50;1.00;1.00;0.00
69205;PMS7003;56319;48.920;2.332;2024-01-06T14:15:16;0.50;0.50;0.50
69205;PMS7003;56319;48.920;2.332;2024-01-06T14:17:41;0.50;0.50;0.00
69205;PMS7003;56319;48.920;2.332;2024-01-06T14:20:14;2.00;1.00;1.00